Time;durP1;ratioP1;P1;durP2;ratioP2;P2;SDS_P1;SDS_P2;PMS_P1;PMS_P2;Temp;Humidity;BMP_temperature;BMP_pressure;BME280_temperature;BME280_humidity;BME280_pressure;Samples;Min_cycle;Max_cycle;Signal;HPM_P1;HPM_P2
2024/02/29 00:01:09;;;;;;;24.00;13.25;;;;;;;7.40;72.62;99874.13;5037235;23;20059;-96
2024/02/29 00:03:38;;;;;;;25.10;13.13;;;;;;;7.41;72.14;99878.44;4930520;28;20421;-96
2024/02/29 00:06:04;;;;;;;28.45;14.38;;;;;;;7.39;72.48;99877.06;4947082;28;20023;-96
2024/02/29 00:08:29;;;;;;;32.05;14.73;;;;;;;7.36;72.99;99872.16;4946699;28;20026;-96
2024/02/29 00:10:55;;;;;;;27.52;13.27;;;;;;;7.42;72.72;99882.75;4928206;28;20510;-96
2024/02/29 00:13:21;;;;;;;24.83;13.13;;;;;;;7.41;72.70;99874.97;4945331;28;20027;-96
2024/02/29 00:15:47;;;;;;;31.83;13.40;;;;;;;7.52;72.21;99884.84;4945267;28;20027;-96
2024/02/29 00:18:13;;;;;;;30.92;13.80;;;;;;;7.36;72.88;99862.25;4930073;28;20058;-96
2024/02/29 00:20:39;;;;;;;26.15;13.85;;;;;;;7.32;73.02;99862.97;4929405;28;20558;-95
2024/02/29 00:23:04;;;;;;;27.75;14.32;;;;;;;7.36;72.92;99861.44;4945288;28;20062;-96
2024/02/29 00:25:32;;;;;;;26.70;13.13;;;;;;;7.38;72.51;99867.38;4947757;28;20046;-96
2024/02/29 00:27:58;;;;;;;25.42;13.90;;;;;;;7.43;72.70;99862.16;4947514;28;20061;-96
2024/02/29 00:30:26;;;;;;;26.35;14.48;;;;;;;7.34;72.79;99852.81;4946629;28;20026;-96
2024/02/29 00:32:53;;;;;;;25.30;14.05;;;;;;;7.53;72.36;99880.28;4945996;28;20114;-96
2024/02/29 00:35:19;;;;;;;26.48;13.60;;;;;;;7.39;71.88;99853.75;4946815;28;20081;-96
2024/02/29 00:37:45;;;;;;;24.27;13.63;;;;;;;7.37;72.22;99869.25;4945819;28;20022;-96
2024/02/29 00:40:14;;;;;;;28.08;13.60;;;;;;;7.36;72.02;99851.53;4945372;28;20034;-96
2024/02/29 00:42:40;;;;;;;29.98;14.13;;;;;;;7.38;72.33;99860.16;4943970;28;20109;-96
2024/02/29 00:45:09;;;;;;;27.92;15.63;;;;;;;7.45;71.67;99860.84;4929541;28;20030;-96
2024/02/29 00:47:35;;;;;;;26.48;13.98;;;;;;;7.45;71.95;99874.25;4945537;28;20050;-96
2024/02/29 00:50:02;;;;;;;27.65;13.73;;;;;;;7.27;72.09;99851.09;4930393;28;20051;-96
2024/02/29 00:52:27;;;;;;;26.90;14.30;;;;;;;7.29;71.86;99858.91;4944849;28;20034;-96
2024/02/29 00:54:53;;;;;;;23.05;13.52;;;;;;;7.23;71.73;99859.84;4945063;28;20061;-96
2024/02/29 00:57:19;;;;;;;22.98;12.68;;;;;;;7.42;71.77;99874.72;4930244;28;20023;-96
2024/02/29 00:59:45;;;;;;;26.88;13.95;;;;;;;7.31;71.65;99854.13;4948924;28;20038;-96
2024/02/29 01:02:10;;;;;;;29.55;13.93;;;;;;;7.34;72.33;99866.22;4964522;28;20038;-96
2024/02/29 01:04:37;;;;;;;25.25;14.32;;;;;;;7.35;72.14;99879.38;4964076;28;20022;-96
2024/02/29 01:07:06;;;;;;;33.40;14.65;;;;;;;7.18;71.86;99857.03;4965155;28;20027;-96
2024/02/29 01:09:32;;;;;;;29.48;13.95;;;;;;;7.20;71.62;99862.97;4965468;28;20034;-96
2024/02/29 01:12:00;;;;;;;25.73;14.02;;;;;;;7.05;72.08;99848.19;4963691;28;20026;-96
2024/02/29 01:14:26;;;;;;;24.17;14.25;;;;;;;7.13;71.69;99859.59;4964172;28;20476;-96
2024/02/29 01:30:59;;;;;;;27.83;17.23;;;;;;;7.50;69.88;99854.78;5133934;27;20376;-92
2024/02/29 01:33:25;;;;;;;30.85;16.25;;;;;;;7.41;70.52;99865.06;5061685;28;20036;-91
2024/02/29 01:35:50;;;;;;;35.92;16.50;;;;;;;7.31;70.75;99864.03;5079642;28;20031;-92
2024/02/29 01:38:16;;;;;;;28.23;16.58;;;;;;;7.32;70.87;99865.63;5062132;28;20024;-91
2024/02/29 01:40:45;;;;;;;27.58;15.90;;;;;;;7.16;70.99;99838.53;5060761;28;20028;-93
2024/02/29 01:43:11;;;;;;;26.27;16.33;;;;;;;7.08;71.02;99830.84;5061990;28;20034;-92
2024/02/29 01:45:36;;;;;;;31.00;15.65;;;;;;;7.04;71.18;99838.53;5060466;28;20019;-92
2024/02/29 01:48:02;;;;;;;27.90;15.27;;;;;;;7.06;71.72;99843.66;5060991;28;20024;-91
2024/02/29 01:50:28;;;;;;;27.17;15.85;;;;;;;6.92;71.35;99831.56;5061549;28;20035;-92
2024/02/29 01:52:53;;;;;;;31.02;16.63;;;;;;;7.02;71.76;99843.31;5078374;28;20019;-91
2024/02/29 01:55:19;;;;;;;30.08;15.90;;;;;;;6.93;71.70;99834.00;5063482;28;20027;-93
2024/02/29 01:57:45;;;;;;;29.73;16.88;;;;;;;6.63;72.03;99815.38;5062426;28;20057;-91
2024/02/29 02:00:11;;;;;;;34.65;16.98;;;;;;;6.72;72.56;99839.91;5061760;28;20084;-91
2024/02/29 02:02:37;;;;;;;35.25;16.48;;;;;;;6.74;72.02;99833.28;5062726;28;20034;-92
2024/02/29 02:05:07;;;;;;;28.45;16.05;;;;;;;6.63;72.38;99824.19;5060754;28;20378;-91
2024/02/29 02:07:35;;;;;;;38.50;16.85;;;;;;;6.71;72.40;99836.44;5061911;28;20489;-91
2024/02/29 02:10:01;;;;;;;32.15;16.98;;;;;;;6.80;72.47;99858.31;5061353;28;20028;-91
2024/02/29 02:12:26;;;;;;;29.45;15.55;;;;;;;6.64;72.63;99838.38;5077164;28;20520;-93
2024/02/29 02:14:52;;;;;;;32.55;16.58;;;;;;;6.74;72.74;99859.22;5061231;28;20024;-91
2024/02/29 02:17:18;;;;;;;34.17;15.98;;;;;;;6.54;73.09;99838.97;5060122;28;20534;-92
2024/02/29 02:19:43;;;;;;;31.60;16.33;;;;;;;6.54;73.01;99838.97;5059848;28;20496;-91
2024/02/29 02:22:09;;;;;;;35.67;16.83;;;;;;;6.72;72.92;99872.03;5061185;28;20035;-91
2024/02/29 02:24:36;;;;;;;40.08;16.30;;;;;;;6.56;73.13;99860.16;5060109;28;20031;-92
2024/02/29 02:27:01;;;;;;;35.50;16.60;;;;;;;6.52;73.20;99849.09;5060570;28;20481;-92
2024/02/29 02:29:27;;;;;;;30.70;17.02;;;;;;;6.47;73.16;99857.81;5060557;28;20070;-92
2024/02/29 02:31:55;;;;;;;29.23;17.02;;;;;;;6.36;73.35;99855.91;5046991;28;20016;-93
2024/02/29 02:34:21;;;;;;;30.05;15.27;;;;;;;6.45;72.97;99848.34;5047834;28;20023;-92
2024/02/29 02:36:46;;;;;;;26.77;15.63;;;;;;;6.51;72.79;99847.44;5064624;28;20542;-92
2024/02/29 02:39:12;;;;;;;29.00;16.38;;;;;;;6.60;72.73;99851.44;5045973;28;20024;-92
2024/02/29 02:41:37;;;;;;;35.50;16.38;;;;;;;6.51;72.88;99846.63;5047411;28;20028;-93
2024/02/29 02:44:03;;;;;;;32.45;17.27;;;;;;;6.62;73.51;99884.13;5045957;28;20088;-92
2024/02/29 02:46:28;;;;;;;27.60;16.05;;;;;;;6.37;73.27;99848.69;5047397;28;20477;-92
2024/02/29 02:48:54;;;;;;;31.30;15.75;;;;;;;6.43;73.11;99851.28;5048458;28;20408;-94
2024/02/29 02:51:25;;;;;;;29.38;16.38;;;;;;;6.31;73.64;99838.91;5046146;28;20028;-92
2024/02/29 02:53:50;;;;;;;32.60;15.70;;;;;;;6.44;73.83;99865.47;5046750;28;20024;-93
2024/02/29 02:56:20;;;;;;;32.67;16.25;;;;;;;6.71;73.48;99886.47;5065014;28;20501;-90
2024/02/29 02:58:45;;;;;;;35.90;17.02;;;;;;;6.64;73.22;99868.66;5097722;28;20084;-93
2024/02/29 03:01:11;;;;;;;25.88;14.95;;;;;;;6.58;73.17;99866.06;5064022;28;20020;-93
2024/02/29 03:03:36;;;;;;;27.52;15.52;;;;;;;6.51;73.11;99878.75;5046240;28;20085;-92
2024/02/29 03:06:03;;;;;;;28.88;15.75;;;;;;;6.37;73.82;99872.75;5064625;28;20028;-92
2024/02/29 03:08:28;;;;;;;35.88;15.27;;;;;;;6.42;73.69;99884.41;5080043;28;20456;-92
2024/02/29 03:10:54;;;;;;;33.90;15.35;;;;;;;6.23;73.44;99859.59;5062370;28;20028;-92
2024/02/29 03:13:19;;;;;;;32.83;16.58;;;;;;;6.32;73.23;99878.81;5046527;28;20062;-92
2024/02/29 03:15:44;;;;;;;27.33;14.90;;;;;;;6.24;72.98;99866.56;5045753;28;20038;-93
2024/02/29 03:18:10;;;;;;;31.45;15.95;;;;;;;6.26;72.83;99861.81;5062892;28;20023;-92
2024/02/29 03:20:44;;;;;;;30.05;15.43;;;;;;;6.28;73.32;99877.63;5046296;28;20031;-92
2024/02/29 03:23:09;;;;;;;33.03;15.90;;;;;;;6.24;73.32;99871.09;5045370;28;20034;-92
2024/02/29 03:25:34;;;;;;;27.38;15.45;;;;;;;6.23;73.63;99869.47;5046882;28;20024;-92
2024/02/29 03:28:00;;;;;;;26.90;15.48;;;;;;;6.17;73.77;99870.41;5062559;28;20024;-93
2024/02/29 03:30:29;;;;;;;35.08;15.85;;;;;;;6.15;73.83;99873.28;5061919;28;20071;-93
2024/02/29 03:32:54;;;;;;;28.05;15.18;;;;;;;6.22;73.43;99865.16;5045854;28;20026;-93
2024/02/29 03:35:20;;;;;;;23.75;14.30;;;;;;;6.26;73.11;99852.97;5046506;28;20114;-92
2024/02/29 03:37:46;;;;;;;29.05;14.85;;;;;;;6.35;72.98;99872.19;5045687;28;20031;-93
2024/02/29 03:40:12;;;;;;;29.45;15.35;;;;;;;6.30;73.17;99870.19;5046359;28;20024;-92
2024/02/29 03:42:38;;;;;;;25.48;15.00;;;;;;;6.31;73.05;99868.31;5061668;28;20038;-92
2024/02/29 03:45:04;;;;;;;34.83;15.32;;;;;;;6.37;73.13;99881.63;5046611;28;20028;-93
2024/02/29 03:47:30;;;;;;;29.80;15.70;;;;;;;6.25;73.38;99862.84;5046534;28;20031;-92
2024/02/29 03:49:55;;;;;;;31.20;15.57;;;;;;;6.22;73.29;99873.19;5046199;28;20062;-93
2024/02/29 03:52:21;;;;;;;26.02;14.93;;;;;;;6.23;73.49;99870.28;5063824;28;20028;-92
2024/02/29 03:54:46;;;;;;;30.20;15.45;;;;;;;6.42;72.89;99891.63;5062857;28;20016;-93
2024/02/29 03:57:11;;;;;;;34.53;15.85;;;;;;;6.32;73.27;99892.16;5063005;28;20023;-92
2024/02/29 03:59:37;;;;;;;32.28;15.13;;;;;;;6.24;73.78;99881.78;5063454;28;20027;-92
2024/02/29 04:02:03;;;;;;;25.75;14.77;;;;;;;6.36;72.69;99884.53;5062707;28;20050;-92
2024/02/29 04:04:29;;;;;;;31.00;15.32;;;;;;;6.24;73.36;99884.47;5044310;28;20029;-92
2024/02/29 04:06:54;;;;;;;32.05;15.50;;;;;;;6.24;73.12;99885.28;5022122;28;20021;-93
2024/02/29 04:09:20;;;;;;;27.00;15.70;;;;;;;6.25;73.37;99888.78;5024444;28;20055;-92
2024/02/29 04:11:45;;;;;;;27.23;15.98;;;;;;;6.05;73.41;99868.47;5025065;28;20024;-92
2024/02/29 04:14:11;;;;;;;39.55;15.82;;;;;;;6.19;73.71;99895.03;5024303;28;20067;-92
2024/02/29 04:16:36;;;;;;;38.35;15.88;;;;;;;6.00;72.93;99878.22;5041549;28;20070;-91
2024/02/29 04:19:05;;;;;;;29.15;16.52;;;;;;;6.10;73.23;99896.38;5041653;28;20020;-91
2024/02/29 04:21:34;;;;;;;38.67;16.23;;;;;;;6.21;72.57;99907.13;5041399;28;20031;-92
2024/02/29 04:24:00;;;;;;;28.42;15.43;;;;;;;6.11;72.98;99893.50;5024764;28;20020;-93
2024/02/29 04:26:26;;;;;;;35.67;15.35;;;;;;;6.21;72.63;99900.97;5024890;28;20048;-92
2024/02/29 04:28:53;;;;;;;26.50;15.35;;;;;;;6.15;73.01;99910.72;5032997;28;20036;-93
2024/02/29 04:31:18;;;;;;;24.90;14.77;;;;;;;6.02;73.07;99892.19;5045873;28;20028;-91
2024/02/29 04:33:47;;;;;;;31.25;15.55;;;;;;;6.06;72.84;99899.53;5060817;28;20046;-92
2024/02/29 04:39:38;;;;;;;35.30;16.55;;;;;;;6.12;73.13;99905.84;5094216;28;20039;-92
2024/02/29 04:42:05;;;;;;;30.10;16.35;;;;;;;6.17;72.88;99908.63;5029400;28;20029;-93
2024/02/29 04:44:31;;;;;;;28.10;15.70;;;;;;;6.12;73.22;99905.84;5038635;28;20478;-93
2024/02/29 04:46:56;;;;;;;27.88;14.93;;;;;;;6.05;73.42;99889.03;5022531;28;20074;-93
2024/02/29 04:49:22;;;;;;;29.23;15.85;;;;;;;6.05;73.37;99887.19;5006775;28;20021;-93
2024/02/29 04:51:47;;;;;;;34.63;16.48;;;;;;;6.10;73.35;99901.72;5032758;28;20054;-94
2024/02/29 04:54:13;;;;;;;31.42;15.40;;;;;;;6.07;72.56;99882.44;5034961;28;20035;-91
2024/02/29 04:56:39;;;;;;;31.08;15.25;;;;;;;6.11;73.45;99900.72;5028385;28;20490;-93
2024/02/29 04:59:07;;;;;;;30.35;15.20;;;;;;;6.00;73.55;99880.91;5005916;28;20024;-94
2024/02/29 05:01:32;;;;;;;30.10;15.35;;;;;;;6.31;72.73;99908.44;5006359;28;20048;-94
2024/02/29 05:03:58;;;;;;;33.67;16.42;;;;;;;6.15;72.88;99886.66;5022164;28;20028;-93
2024/02/29 05:06:23;;;;;;;36.78;15.88;;;;;;;6.31;72.86;99903.09;5006463;28;20024;-94
2024/02/29 05:08:49;;;;;;;23.73;14.05;;;;;;;6.25;72.31;99889.59;5020854;28;20032;-94
2024/02/29 05:11:14;;;;;;;33.83;15.98;;;;;;;6.34;72.51;99895.44;5028593;28;20032;-92
2024/02/29 05:13:40;;;;;;;33.38;15.23;;;;;;;6.27;72.49;99882.16;5063826;28;20556;-94
2024/02/29 05:16:05;;;;;;;34.78;15.88;;;;;;;6.41;72.23;99877.44;5024962;28;20028;-93
2024/02/29 05:18:31;;;;;;;27.58;14.25;;;;;;;6.51;72.11;99892.13;5050323;28;20028;-91
2024/02/29 05:20:58;;;;;;;28.85;14.77;;;;;;;6.42;71.94;99886.28;5029921;28;20055;-92
2024/02/29 05:23:23;;;;;;;26.65;15.38;;;;;;;6.39;72.18;99895.59;5024464;28;20101;-92
2024/02/29 05:25:49;;;;;;;34.92;15.27;;;;;;;6.44;71.91;99892.22;5051315;28;20021;-93
2024/02/29 05:28:15;;;;;;;26.70;15.18;;;;;;;6.50;71.94;99903.88;5045695;28;20029;-94
2024/02/29 05:30:41;;;;;;;22.63;13.55;;;;;;;6.56;70.92;99894.94;5053043;28;20044;-92
2024/02/29 05:33:07;;;;;;;29.83;17.92;;;;;;;6.53;70.76;99876.66;5034843;28;20029;-93
2024/02/29 05:35:33;;;;;;;36.80;17.23;;;;;;;6.58;71.08;99901.69;5039889;28;20547;-93
2024/02/29 05:37:58;;;;;;;38.80;19.83;;;;;;;6.62;71.13;99902.84;5037032;28;20040;-96
2024/02/29 05:40:26;;;;;;;34.50;17.30;;;;;;;6.61;71.45;99903.88;5067722;28;20059;-93
2024/02/29 05:42:54;;;;;;;32.05;16.05;;;;;;;6.61;71.28;99895.06;5030404;28;20033;-93
2024/02/29 05:45:19;;;;;;;37.40;17.50;;;;;;;6.76;70.57;99894.59;5035929;28;20039;-93
2024/02/29 05:47:50;;;;;;;42.38;19.92;;;;;;;6.94;70.23;99907.91;5049962;28;20028;-93
2024/02/29 05:50:16;;;;;;;54.28;18.98;;;;;;;6.98;70.58;99913.63;5046236;28;20027;-95
2024/02/29 05:52:42;;;;;;;37.05;18.08;;;;;;;7.11;70.16;99918.75;5045464;28;20041;-93
2024/02/29 05:55:08;;;;;;;41.28;18.25;;;;;;;6.94;70.42;99907.09;5040582;28;20284;-94
2024/02/29 05:57:35;;;;;;;38.50;17.90;;;;;;;7.02;70.01;99918.28;5032647;28;20116;-93
2024/02/29 06:00:01;;;;;;;40.35;17.75;;;;;;;7.04;70.12;99918.84;5050525;28;20028;-94
2024/02/29 06:02:27;;;;;;;36.42;15.95;;;;;;;7.18;69.13;99918.63;5053786;28;20027;-93
2024/02/29 06:04:53;;;;;;;35.75;17.65;;;;;;;7.12;68.99;99903.47;5035235;28;20055;-94
2024/02/29 06:07:18;;;;;;;42.42;17.38;;;;;;;7.29;69.21;99925.84;5032663;28;20111;-95
2024/02/29 06:09:44;;;;;;;29.35;16.27;;;;;;;7.19;69.64;99909.56;5034018;28;20031;-93
2024/02/29 06:12:10;;;;;;;39.67;17.45;;;;;;;7.24;69.46;99917.69;5032518;28;20016;-94
2024/02/29 06:14:35;;;;;;;28.23;15.38;;;;;;;7.37;69.59;99927.38;5040815;28;20474;-94
2024/02/29 06:17:03;;;;;;;35.40;18.25;;;;;;;7.44;69.52;99933.41;5041350;28;20101;-95
2024/02/29 06:19:30;;;;;;;38.50;17.40;;;;;;;7.68;68.53;99947.63;5048511;28;20032;-96
2024/02/29 06:21:56;;;;;;;31.17;14.73;;;;;;;7.72;68.56;99938.06;5031490;28;20032;-96
2024/02/29 06:24:21;;;;;;;29.52;16.15;;;;;;;7.72;68.45;99918.47;5031362;28;20028;-95
2024/02/29 06:26:47;;;;;;;35.33;17.30;;;;;;;7.81;67.96;99927.78;5046474;28;20426;-93
2024/02/29 06:29:15;;;;;;;35.65;16.63;;;;;;;8.04;67.72;99951.03;5038865;28;20048;-93
2024/02/29 06:31:42;;;;;;;32.70;16.33;;;;;;;7.97;68.12;99935.09;5026356;28;20029;-93
2024/02/29 06:34:10;;;;;;;44.13;17.33;;;;;;;7.98;67.98;99919.81;5025518;28;20025;-91
2024/02/29 06:36:36;;;;;;;23.95;15.50;;;;;;;8.17;67.79;99939.22;5027369;28;20035;-94
2024/02/29 06:39:04;;;;;;;32.13;17.30;;;;;;;8.08;67.52;99922.69;5010767;28;20025;-92
2024/02/29 06:41:29;;;;;;;35.70;17.60;;;;;;;8.37;67.88;99949.53;5024942;28;20068;-91
2024/02/29 06:43:56;;;;;;;47.30;18.30;;;;;;;8.34;67.44;99928.53;5027133;28;20025;-93
2024/02/29 06:46:21;;;;;;;44.72;18.38;;;;;;;8.33;66.81;99929.63;5010644;28;20460;-94
2024/02/29 06:48:47;;;;;;;41.00;17.05;;;;;;;8.53;67.18;99951.50;5032102;28;20020;-95
2024/02/29 06:51:16;;;;;;;31.00;15.82;;;;;;;8.28;66.66;99923.09;5036736;28;20055;-96
2024/02/29 06:53:42;;;;;;;32.78;16.52;;;;;;;8.38;66.93;99940.44;5036879;28;20029;-93
2024/02/29 06:56:10;;;;;;;46.30;18.20;;;;;;;8.37;66.86;99931.56;5005907;28;20458;-94
2024/02/29 06:58:36;;;;;;;41.35;19.83;;;;;;;8.25;67.50;99920.06;5004955;28;20490;-93
2024/02/29 07:01:04;;;;;;;37.60;19.50;;;;;;;8.24;68.41;99948.78;5028485;28;20057;-93
2024/02/29 07:03:32;;;;;;;33.67;19.65;;;;;;;8.09;68.41;99938.56;4990601;28;20029;-94
2024/02/29 07:05:57;;;;;;;43.63;18.98;;;;;;;7.78;68.93;99915.69;5005924;28;20329;-92
2024/02/29 07:08:23;;;;;;;47.08;19.65;;;;;;;8.05;68.29;99924.00;5000691;28;20032;-92
2024/02/29 07:10:49;;;;;;;41.30;20.00;;;;;;;8.24;67.97;99931.88;5024738;28;20032;-92
2024/02/29 07:13:14;;;;;;;38.75;19.45;;;;;;;8.30;67.74;99918.31;5036644;28;20110;-96
2024/02/29 07:15:49;;;;;;;34.97;19.67;;;;;;;8.54;67.25;99937.00;5028811;28;20032;-96
2024/02/29 07:20:57;;;;;;;42.72;19.25;;;;;;;8.62;66.80;99920.50;5068701;22;20075;-93
2024/02/29 07:23:26;;;;;;;59.03;23.35;;;;;;;8.60;66.77;99933.34;4991647;28;20037;-92
2024/02/29 07:25:55;;;;;;;57.65;23.08;;;;;;;8.62;66.52;99923.19;5021838;28;20055;-95
2024/02/29 07:28:22;;;;;;;32.58;16.67;;;;;;;8.52;67.37;99930.25;4991300;28;20036;-95
2024/02/29 07:30:49;;;;;;;35.65;18.33;;;;;;;8.47;66.88;99915.69;5015005;28;20022;-91
2024/02/29 07:33:15;;;;;;;34.25;17.80;;;;;;;8.73;66.56;99924.19;4992856;28;20110;-95
2024/02/29 07:35:41;;;;;;;36.67;20.08;;;;;;;8.93;66.59;99945.19;5005107;28;20025;-92
2024/02/29 07:38:08;;;;;;;35.15;20.05;;;;;;;9.09;66.13;99938.22;5012690;28;20093;-95
2024/02/29 07:40:52;;;;;;;39.40;20.20;;;;;;;9.06;65.86;99915.31;5015543;28;20132;-96
2024/02/29 07:46:45;;;;;;;33.70;18.73;;;;;;;9.38;64.86;99922.78;5050786;28;20056;-96
2024/02/29 07:49:18;;;;;;;28.67;18.17;;;;;;;9.46;64.51;99917.00;5014853;28;20188;-94
2024/02/29 07:51:48;;;;;;;44.30;24.42;;;;;;;9.49;64.44;99897.66;4994795;28;20064;-95
2024/02/29 07:54:34;;;;;;;;;;;;;;;;;;;;;
2024/02/29 07:57:19;;;;;;;43.53;19.90;;;;;;;9.93;63.77;99906.81;5016077;28;20088;-92
2024/02/29 07:59:49;;;;;;;35.10;19.15;;;;;;;10.04;63.21;99913.94;5006396;28;20462;-93
2024/02/29 08:02:26;;;;;;;40.67;22.02;;;;;;;10.05;63.30;99891.38;4987727;28;20040;-92
2024/02/29 08:05:15;;;;;;;37.72;18.38;;;;;;;10.19;62.99;99891.78;4989681;28;20029;-93
2024/02/29 08:07:46;;;;;;;51.40;21.35;;;;;;;10.32;62.67;99892.22;5009499;28;20033;-94
2024/02/29 08:10:15;;;;;;;82.72;47.72;;;;;;;10.30;62.38;99886.28;5002951;28;20018;-92
2024/02/29 08:12:42;;;;;;;40.92;22.77;;;;;;;10.50;61.96;99887.56;5005132;28;20079;-89
2024/02/29 08:15:08;;;;;;;35.40;21.25;;;;;;;10.77;61.68;99909.06;4984395;28;20025;-88
2024/02/29 08:17:39;;;;;;;37.50;22.42;;;;;;;10.85;61.54;99900.53;5018222;28;20017;-90
2024/02/29 08:20:05;;;;;;;47.85;28.38;;;;;;;10.86;61.17;99888.66;5023528;28;20120;-93
2024/02/29 08:22:31;;;;;;;40.67;22.85;;;;;;;10.81;61.09;99879.72;4968543;28;20034;-94
2024/02/29 08:24:58;;;;;;;42.50;23.15;;;;;;;10.82;61.12;99886.75;4987251;28;20048;-94
2024/02/29 08:30:36;;;;;;;50.38;24.08;;;;;;;11.00;62.13;99910.59;4972347;28;20101;-93
2024/02/29 08:33:02;;;;;;;39.58;22.23;;;;;;;10.92;62.35;99911.88;4972094;28;20029;-94
2024/02/29 08:35:29;;;;;;;49.35;21.77;;;;;;;10.77;62.51;99884.84;4966490;28;20045;-94
2024/02/29 08:37:55;;;;;;;39.67;22.77;;;;;;;10.86;62.65;99888.66;5001941;28;20040;-93
2024/02/29 08:40:21;;;;;;;38.85;22.08;;;;;;;10.68;63.27;99867.50;4965824;28;20485;-92
2024/02/29 08:43:01;;;;;;;;;;;;;;;;;;;;;
2024/02/29 08:45:35;;;;;;;42.92;20.67;;;;;;;10.74;63.07;99871.06;5015226;28;20132;-94
2024/02/29 08:50:43;;;;;;;39.63;19.88;;;;;;;10.67;64.16;99882.06;4987543;28;20093;-96
2024/02/29 08:56:38;;;;;;;35.55;20.25;;;;;;;10.71;64.45;99910.09;4963968;28;20140;-95
2024/02/29 08:59:09;;;;;;;38.22;21.20;;;;;;;10.50;64.05;99874.09;4945881;28;20019;-94
2024/02/29 09:01:38;;;;;;;43.85;23.48;;;;;;;10.64;63.82;99877.16;4933365;28;20117;-95
2024/02/29 09:04:13;;;;;;;;;;;;;;;;;;;;;
2024/02/29 09:06:39;;;;;;;36.65;20.80;;;;;;;10.96;63.72;99901.41;4949681;28;20104;-95
2024/02/29 09:09:10;;;;;;;37.13;20.67;;;;;;;11.09;63.24;99895.56;4929959;28;20027;-94
2024/02/29 09:11:38;;;;;;;53.17;23.77;;;;;;;11.26;63.03;99900.00;4948265;28;20038;-95
2024/02/29 09:14:07;;;;;;;38.22;23.13;;;;;;;11.17;62.91;99874.59;4948197;28;20045;-96
2024/02/29 09:16:45;;;;;;;;;;;;;;;;;;;;;
2024/02/29 09:19:13;;;;;;;33.05;18.67;;;;;;;11.48;62.01;99871.00;4954723;28;20213;-96
2024/02/29 09:21:42;;;;;;;43.20;22.60;;;;;;;11.64;62.05;99888.09;4933008;28;20027;-96
2024/02/29 09:24:08;;;;;;;35.92;22.42;;;;;;;11.70;61.71;99887.03;4929538;28;20026;-93
2024/02/29 09:26:34;;;;;;;46.10;21.40;;;;;;;11.71;61.37;99877.84;4931866;28;20027;-96
2024/02/29 09:29:00;;;;;;;35.83;20.25;;;;;;;12.00;60.44;99884.75;4947518;28;20496;-94
2024/02/29 09:31:35;;;;;;;35.40;20.27;;;;;;;12.17;59.86;99879.91;4931558;28;20096;-96
2024/02/29 09:34:03;;;;;;;38.53;20.63;;;;;;;12.31;59.75;99875.63;4936444;28;20031;-94
2024/02/29 09:36:31;;;;;;;46.90;28.60;;;;;;;12.29;60.19;99883.19;4930331;28;20541;-92
2024/02/29 09:38:56;;;;;;;38.72;22.08;;;;;;;12.17;60.90;99881.81;4928404;28;20117;-92
2024/02/29 09:41:24;;;;;;;46.28;22.67;;;;;;;12.22;60.43;99869.16;4930787;28;20054;-95
2024/02/29 09:43:50;;;;;;;37.17;20.27;;;;;;;12.33;59.92;99864.56;4931534;28;20085;-92
2024/02/29 09:46:16;;;;;;;38.60;21.67;;;;;;;12.65;59.17;99877.03;4935265;28;20026;-95
2024/02/29 09:48:42;;;;;;;38.20;18.77;;;;;;;12.88;58.93;99881.88;4966278;28;20050;-95
2024/02/29 09:51:13;;;;;;;32.35;19.08;;;;;;;12.88;58.63;99867.56;4951291;28;20035;-96
2024/02/29 09:53:39;;;;;;;36.63;20.00;;;;;;;12.73;59.03;99855.66;4941526;28;20038;-96
2024/02/29 09:56:31;;;;;;;38.20;18.70;;;;;;;12.85;59.11;99850.00;4940607;28;20023;-95
2024/02/29 09:58:59;;;;;;;33.30;18.98;;;;;;;12.78;58.63;99845.94;4954124;28;20090;-93
2024/02/29 10:01:30;;;;;;;41.03;19.08;;;;;;;12.89;58.74;99850.28;4936129;28;20107;-95
2024/02/29 10:04:06;;;;;;;37.28;20.55;;;;;;;12.81;59.82;99865.13;4953907;28;20057;-93
2024/02/29 10:06:32;;;;;;;31.02;18.85;;;;;;;13.00;58.87;99859.19;4953462;28;20034;-93
2024/02/29 10:09:01;;;;;;;33.83;19.02;;;;;;;12.89;58.76;99861.88;4934567;28;20027;-92
2024/02/29 10:11:28;;;;;;;34.92;17.98;;;;;;;12.93;58.54;99844.03;4936437;28;20038;-92
2024/02/29 10:13:54;;;;;;;36.42;19.20;;;;;;;13.06;58.26;99848.06;4955038;28;20035;-93
2024/02/29 10:16:22;;;;;;;36.13;19.60;;;;;;;13.16;58.47;99855.38;4952006;28;20050;-95
2024/02/29 10:19:33;;;;;;;44.10;20.88;;;;;;;13.26;58.18;99849.94;4933062;28;20027;-92
2024/02/29 10:22:01;;;;;;;33.83;19.65;;;;;;;13.34;57.86;99829.63;4942725;28;20428;-92
2024/02/29 10:24:32;;;;;;;40.72;18.40;;;;;;;13.51;57.30;99838.25;4934961;28;20034;-91
2024/02/29 10:27:22;;;;;;;37.53;19.83;;;;;;;13.48;56.73;99810.94;4936628;28;20054;-92
2024/02/29 10:30:27;;;;;;;47.13;26.92;;;;;;;13.89;56.50;99841.31;4981292;28;20101;-94
2024/02/29 10:32:53;;;;;;;29.98;19.73;;;;;;;13.87;55.82;99813.72;4967206;28;20066;-93
2024/02/29 10:35:36;;;;;;;40.28;21.75;;;;;;;13.95;55.81;99812.34;4933949;29;20110;-95
2024/02/29 10:38:08;;;;;;;32.15;19.10;;;;;;;14.07;55.47;99817.38;4935690;29;20039;-96
2024/02/29 10:40:34;;;;;;;33.72;19.45;;;;;;;14.18;55.34;99821.66;4933068;29;20105;-94
2024/02/29 10:43:07;;;;;;;37.35;18.42;;;;;;;14.20;55.06;99807.84;4915248;29;20027;-93
2024/02/29 10:45:33;;;;;;;38.72;20.42;;;;;;;14.15;55.42;99795.13;4917739;29;20127;-92
2024/02/29 10:48:32;;;;;;;37.97;21.23;;;;;;;14.08;56.25;99822.53;4913218;29;20046;-93
2024/02/29 10:51:23;;;;;;;39.30;19.73;;;;;;;14.26;55.91;99822.97;4944350;29;20075;-93
2024/02/29 10:54:10;;;;;;;28.83;17.35;;;;;;;14.40;54.89;99812.28;4928665;29;20032;-94
2024/02/29 10:57:14;;;;;;;33.47;18.63;;;;;;;14.62;54.41;99809.97;4950408;29;20023;-95
2024/02/29 11:00:08;;;;;;;31.02;19.60;;;;;;;14.45;54.41;99767.00;4929401;29;20074;-95
2024/02/29 11:02:45;;;;;;;32.58;20.23;;;;;;;14.61;54.10;99767.72;4925952;29;20031;-95
2024/02/29 11:05:10;;;;;;;30.98;19.35;;;;;;;14.85;53.67;99783.19;4931514;29;20028;-93
2024/02/29 11:07:39;;;;;;;27.48;17.08;;;;;;;14.91;53.48;99792.91;4911882;29;20067;-93
2024/02/29 11:10:19;;;;;;;36.78;18.20;;;;;;;14.88;53.11;99763.63;4937178;29;20095;-96
2024/02/29 11:12:49;;;;;;;33.70;17.90;;;;;;;14.93;52.85;99753.56;4900877;29;20031;-96
2024/02/29 11:15:14;;;;;;;27.65;17.52;;;;;;;15.08;52.74;99774.25;4901174;29;20631;-95
2024/02/29 11:17:45;;;;;;;30.58;18.02;;;;;;;14.96;52.30;99749.44;4895061;29;20031;-96
2024/02/29 11:20:19;;;;;;;27.45;16.80;;;;;;;15.20;52.20;99770.34;4900306;29;20569;-95
2024/02/29 11:23:27;;;;;;;25.80;15.77;;;;;;;15.08;52.19;99744.44;4874609;29;20032;-96
2024/02/29 11:26:13;;;;;;;23.30;15.05;;;;;;;15.39;52.00;99773.91;4906467;29;20028;-96
2024/02/29 11:29:29;;;;;;;;;;;;;;;;;;;;;
2024/02/29 11:32:47;;;;;;;28.23;14.88;;;;;;;15.15;51.80;99725.91;4903897;29;20131;-93
2024/02/29 11:35:14;;;;;;;30.25;15.85;;;;;;;15.25;51.70;99735.84;4866306;29;20075;-96
2024/02/29 11:37:56;;;;;;;25.42;15.55;;;;;;;15.16;51.49;99729.44;4947513;29;20035;-95
2024/02/29 11:40:22;;;;;;;27.65;14.82;;;;;;;15.20;52.02;99724.25;4931479;29;20031;-93
2024/02/29 11:42:48;;;;;;;27.40;15.68;;;;;;;15.52;51.40;99753.38;4928122;28;20042;-95
2024/02/29 11:45:21;;;;;;;24.05;14.80;;;;;;;15.39;50.97;99726.97;4931210;28;20035;-96
2024/02/29 11:47:47;;;;;;;54.38;16.25;;;;;;;15.32;51.34;99724.63;4949653;28;20035;-94
2024/02/29 11:50:13;;;;;;;25.95;14.98;;;;;;;15.25;51.09;99714.13;4947664;28;20441;-94
2024/02/29 11:52:38;;;;;;;28.67;16.10;;;;;;;15.51;51.25;99728.16;4951063;28;20034;-92
2024/02/29 11:55:07;;;;;;;32.63;15.88;;;;;;;15.43;51.03;99700.88;4951767;28;20033;-94
2024/02/29 11:57:36;;;;;;;25.30;14.90;;;;;;;15.60;50.88;99722.06;4954456;28;20041;-95
2024/02/29 12:00:04;;;;;;;27.10;14.50;;;;;;;15.68;50.66;99732.28;4950307;28;20034;-94
2024/02/29 12:02:29;;;;;;;26.23;15.35;;;;;;;15.62;50.57;99698.97;4951838;28;20044;-95
2024/02/29 12:04:56;;;;;;;22.38;14.65;;;;;;;15.89;50.26;99714.59;4983432;28;20105;-94
2024/02/29 12:07:32;;;;;;;;;;;;;;;;;;;;;
2024/02/29 12:10:01;;;;;;;28.08;15.38;;;;;;;15.91;50.19;99689.88;4973037;28;20093;-94